createdAt,value
2022-09-12T00:01:36.801Z,13.5
2022-09-12T00:06:36.733Z,13.5
2022-09-12T00:11:36.745Z,13.5
2022-09-12T00:16:36.869Z,13.4
2022-09-12T00:21:36.749Z,13.4
2022-09-12T00:26:36.770Z,13.4
2022-09-12T00:31:36.831Z,13.3
2022-09-12T00:36:36.757Z,13.3
2022-09-12T00:41:36.760Z,13.3
2022-09-12T00:46:36.778Z,13.2
2022-09-12T00:51:36.764Z,13.1
2022-09-12T00:56:36.776Z,13.1
2022-09-12T01:01:36.898Z,13.0
2022-09-12T01:06:36.783Z,13.0
2022-09-12T01:11:36.774Z,13.0
2022-09-12T01:16:37.007Z,13.0
2022-09-12T01:21:36.780Z,13.0
2022-09-12T01:26:36.791Z,12.9
2022-09-12T01:31:36.787Z,12.9
2022-09-12T01:36:36.791Z,12.8
2022-09-12T01:41:36.794Z,12.8
2022-09-12T01:46:36.819Z,12.8
2022-09-12T01:51:36.803Z,12.8
2022-09-12T01:56:36.812Z,12.7
2022-09-12T02:01:36.809Z,12.7
2022-09-12T02:06:36.807Z,12.6
2022-09-12T02:11:36.817Z,12.6
2022-09-12T02:16:36.914Z,12.6
2022-09-12T02:21:37.932Z,12.5
2022-09-12T02:26:36.825Z,12.5
2022-09-12T02:31:36.822Z,12.4
2022-09-12T02:36:36.837Z,12.3
2022-09-12T02:41:36.833Z,12.3
2022-09-12T02:46:36.850Z,12.3
2022-09-12T02:51:36.838Z,12.2
2022-09-12T02:56:36.849Z,12.2
2022-09-12T03:01:36.924Z,12.1
2022-09-12T03:06:36.850Z,12.1
2022-09-12T03:11:36.850Z,12.2
2022-09-12T03:16:36.917Z,12.1
2022-09-12T03:21:36.856Z,12.1
2022-09-12T03:26:36.868Z,12.2
2022-09-12T03:31:36.858Z,12.1
2022-09-12T03:36:36.863Z,12.1
2022-09-12T03:41:36.859Z,12.0
2022-09-12T03:46:36.897Z,12.0
2022-09-12T03:51:36.867Z,11.9
2022-09-12T03:56:36.881Z,11.9
2022-09-12T04:01:36.878Z,11.9
2022-09-12T04:06:36.892Z,11.9
2022-09-12T04:11:36.884Z,11.8
2022-09-12T04:16:36.957Z,11.8
2022-09-12T04:21:36.898Z,11.8
2022-09-12T04:26:36.899Z,11.8
2022-09-12T04:31:36.903Z,11.7
2022-09-12T04:36:36.896Z,11.7
2022-09-12T04:41:36.895Z,11.7
2022-09-12T04:46:36.924Z,11.7
2022-09-12T04:51:36.906Z,11.7
2022-09-12T04:56:36.920Z,11.7
2022-09-12T05:01:37.043Z,11.8
2022-09-12T05:06:36.918Z,11.8
2022-09-12T05:12:02.823Z,11.9
2022-09-12T05:16:37.005Z,11.9
2022-09-12T05:21:36.924Z,11.9
2022-09-12T05:26:36.936Z,12.0
2022-09-12T05:31:36.930Z,12.0
2022-09-12T05:36:36.943Z,12.1
2022-09-12T05:41:36.940Z,12.2
2022-09-12T05:46:36.957Z,12.3
2022-09-12T05:51:36.943Z,12.4
2022-09-12T05:56:36.960Z,12.6
2022-09-12T06:01:36.964Z,12.5
2022-09-12T06:06:36.950Z,12.5
2022-09-12T06:11:36.952Z,12.6
2022-09-12T06:16:37.038Z,12.7
2022-09-12T06:21:36.960Z,12.8
2022-09-12T06:26:36.973Z,13.0
2022-09-12T06:31:36.973Z,13.0
2022-09-12T06:36:36.970Z,13.2
2022-09-12T06:41:39.411Z,13.3
2022-09-12T06:44:24.033Z,13.3
2022-09-12T06:46:36.970Z,13.5
2022-09-12T06:51:37.004Z,13.7
2022-09-12T06:56:37.002Z,13.7
2022-09-12T07:01:37.028Z,14.0
2022-09-12T07:06:36.995Z,14.1
2022-09-12T07:11:36.991Z,14.2
2022-09-12T07:16:37.103Z,14.4
2022-09-12T07:21:37.086Z,14.5
2022-09-12T07:26:37.013Z,14.8
2022-09-12T07:31:37.004Z,14.8
2022-09-12T07:36:37.000Z,14.8
2022-09-12T07:41:37.015Z,14.8
2022-09-12T07:46:37.027Z,14.8
2022-09-12T07:51:37.037Z,14.8
2022-09-12T07:56:39.327Z,14.9
2022-09-12T08:01:37.153Z,15.0
2022-09-12T08:06:37.033Z,15.1
2022-09-12T08:11:37.020Z,15.1
2022-09-12T08:16:37.033Z,15.3
2022-09-12T08:21:37.159Z,15.4
2022-09-12T08:26:37.048Z,15.6
2022-09-12T08:31:37.041Z,15.6
2022-09-12T08:36:37.041Z,15.8
2022-09-12T08:41:37.053Z,16.0
2022-09-12T08:46:37.051Z,16.2
2022-09-12T08:51:37.051Z,16.4
2022-09-12T08:56:37.091Z,16.6
2022-09-12T09:01:37.112Z,16.8
2022-09-12T09:06:37.058Z,17.4
2022-09-12T09:11:37.055Z,17.9
2022-09-12T09:16:37.070Z,17.8
2022-09-12T09:21:37.072Z,17.9
2022-09-12T09:26:37.099Z,18.2
2022-09-12T09:31:37.077Z,18.2
2022-09-12T09:36:37.073Z,18.4
2022-09-12T09:41:37.074Z,18.6
2022-09-12T09:46:37.164Z,18.7
2022-09-12T09:51:37.088Z,19.2
2022-09-12T09:56:37.126Z,19.3
2022-09-12T10:01:37.119Z,19.4
2022-09-12T10:06:37.094Z,19.7
2022-09-12T10:11:37.102Z,19.7
2022-09-12T10:16:37.104Z,19.9
2022-09-12T10:21:38.616Z,20.2
2022-09-12T10:26:37.159Z,20.5
2022-09-12T10:31:37.119Z,20.5
2022-09-12T10:36:37.122Z,21.0
2022-09-12T10:41:37.126Z,21.1
2022-09-12T10:46:37.130Z,21.3
2022-09-12T10:51:37.126Z,21.6
2022-09-12T10:56:37.161Z,21.6
2022-09-12T11:01:37.198Z,22.0
2022-09-12T11:06:37.129Z,22.1
2022-09-12T11:11:37.132Z,22.0
2022-09-12T11:16:37.142Z,22.2
2022-09-12T11:21:37.137Z,22.2
2022-09-12T11:26:37.185Z,22.5
2022-09-12T11:31:37.143Z,22.8
2022-09-12T11:36:37.655Z,23.0
2022-09-12T11:41:37.151Z,23.4
2022-09-12T11:46:37.159Z,23.5
2022-09-12T11:51:37.161Z,23.0
2022-09-12T11:56:37.197Z,23.2
2022-09-12T12:01:42.047Z,23.2
2022-09-12T12:06:37.169Z,23.4
2022-09-12T12:11:37.173Z,23.7
2022-09-12T12:16:37.180Z,23.9
2022-09-12T12:21:37.181Z,24.1
2022-09-12T12:26:37.202Z,24.1
2022-09-12T12:31:37.194Z,24.3
2022-09-12T12:36:37.186Z,24.2
2022-09-12T12:41:37.191Z,23.9
2022-09-12T12:46:37.294Z,23.6
2022-09-12T12:51:37.199Z,23.7
2022-09-12T12:56:37.271Z,24.0
2022-09-12T13:01:37.233Z,23.9
2022-09-12T13:06:37.217Z,23.9
2022-09-12T13:11:37.212Z,24.0
2022-09-12T13:16:37.220Z,24.0
2022-09-12T13:21:37.222Z,24.0
2022-09-12T13:26:37.254Z,23.8
2022-09-12T13:31:37.222Z,23.7
2022-09-12T13:36:37.227Z,23.7
2022-09-12T13:41:37.227Z,23.6
2022-09-12T13:46:37.244Z,23.6
2022-09-12T13:51:37.265Z,23.5
2022-09-12T13:56:37.277Z,23.6
2022-09-12T14:01:37.273Z,23.4
2022-09-12T14:06:37.250Z,23.4
2022-09-12T14:11:37.250Z,23.4
2022-09-12T14:16:37.254Z,23.4
2022-09-12T14:21:37.253Z,23.3
2022-09-12T14:26:37.297Z,23.3
2022-09-12T14:31:37.281Z,23.3
2022-09-12T14:36:37.262Z,23.1
2022-09-12T14:41:37.267Z,23.1
2022-09-12T14:46:37.389Z,23.1
2022-09-12T14:51:37.280Z,23.0
2022-09-12T14:56:37.304Z,23.0
2022-09-12T15:01:37.328Z,22.9
2022-09-12T15:06:37.285Z,22.8
2022-09-12T15:11:37.293Z,22.8
2022-09-12T15:16:37.295Z,23.0
2022-09-12T15:21:37.296Z,23.1
2022-09-12T15:26:37.331Z,23.1
2022-09-12T15:31:37.307Z,23.0
2022-09-12T15:36:37.314Z,23.0
2022-09-12T15:41:37.311Z,22.8
2022-09-12T15:46:37.352Z,22.6
2022-09-12T15:51:37.311Z,22.5
2022-09-12T15:56:37.355Z,22.5
2022-09-12T16:01:37.357Z,22.5
2022-09-12T16:06:03.167Z,22.5
2022-09-12T16:06:37.581Z,22.3
2022-09-12T16:18:05.682Z,22.2
2022-09-12T16:22:06.009Z,22.1
2022-09-12T16:26:37.365Z,22.2
2022-09-12T16:31:37.436Z,22.1
2022-09-12T16:36:37.338Z,22.0
2022-09-12T16:41:37.346Z,21.9
2022-09-12T16:46:37.377Z,21.9
2022-09-12T16:51:37.365Z,21.7
2022-09-12T16:56:37.384Z,21.5
2022-09-12T17:06:39.138Z,21.3
2022-09-12T17:09:43.325Z,21.3
2022-09-12T17:11:37.358Z,21.2
2022-09-12T17:14:13.464Z,21.2
2022-09-12T17:16:49.268Z,21.0
2022-09-12T17:21:37.369Z,20.8
2022-09-12T17:23:09.932Z,20.8
2022-09-12T17:26:31.136Z,20.8
2022-09-12T17:26:37.286Z,20.6
2022-09-12T17:31:37.465Z,20.4
2022-09-12T17:36:37.375Z,20.3
2022-09-12T17:41:37.386Z,20.1
2022-09-12T17:46:37.457Z,19.9
2022-09-12T17:51:37.392Z,19.9
2022-09-12T17:56:37.385Z,19.9
2022-09-12T18:01:37.454Z,19.8
2022-09-12T18:06:37.399Z,19.7
2022-09-12T18:11:37.401Z,19.7
2022-09-12T18:16:37.399Z,19.6
2022-09-12T18:21:37.403Z,19.5
2022-09-12T18:26:37.429Z,19.3
2022-09-12T18:31:37.542Z,19.1
2022-09-12T18:36:37.415Z,18.9
2022-09-12T18:41:37.418Z,18.9
2022-09-12T18:46:37.499Z,18.8
2022-09-12T18:51:51.663Z,18.8
2022-09-12T18:56:37.430Z,18.8
2022-09-12T19:01:37.539Z,18.8
2022-09-12T19:06:37.439Z,18.7
2022-09-12T19:09:36.210Z,18.7
2022-09-12T19:11:37.442Z,18.6
2022-09-12T19:16:37.442Z,18.5
2022-09-12T19:21:37.447Z,18.5
2022-09-12T19:26:37.451Z,18.4
2022-09-12T19:31:37.490Z,18.4
2022-09-12T19:36:46.726Z,18.3
2022-09-12T19:41:37.455Z,18.2
2022-09-12T19:46:37.518Z,18.0
2022-09-12T19:51:37.466Z,18.0
2022-09-12T19:56:37.460Z,17.9
2022-09-12T20:01:37.666Z,17.8
2022-09-12T20:06:37.467Z,17.8
2022-09-12T20:11:37.476Z,17.7
2022-09-12T20:16:37.512Z,17.7
2022-09-12T20:21:37.482Z,17.8
2022-09-12T20:26:37.481Z,17.9
2022-09-12T20:31:37.580Z,18.0
2022-09-12T20:36:37.484Z,18.0
2022-09-12T20:41:37.494Z,18.0
2022-09-12T20:46:37.580Z,17.9
2022-09-12T20:51:37.511Z,17.9
2022-09-12T20:56:37.500Z,17.7
2022-09-12T21:01:37.617Z,17.6
2022-09-12T21:06:37.508Z,17.5
2022-09-12T21:11:37.507Z,17.5
2022-09-12T21:16:37.510Z,17.4
2022-09-12T21:21:37.559Z,17.3
2022-09-12T21:26:37.516Z,17.3
2022-09-12T21:31:37.654Z,17.3
2022-09-12T21:36:37.524Z,17.3
2022-09-12T21:41:37.526Z,17.4
2022-09-12T21:46:37.547Z,17.4
2022-09-12T21:51:37.533Z,17.4
2022-09-12T21:56:37.540Z,17.4
2022-09-12T22:01:37.606Z,17.5
2022-09-12T22:06:37.548Z,17.5
2022-09-12T22:11:37.549Z,17.6
2022-09-12T22:16:37.550Z,17.6
2022-09-12T22:21:37.555Z,17.6
2022-09-12T22:26:37.553Z,17.7
2022-09-12T22:31:37.637Z,17.7
2022-09-12T22:36:39.192Z,17.7
2022-09-12T22:41:37.566Z,17.8
2022-09-12T22:46:37.616Z,17.8
2022-09-12T22:51:37.570Z,17.8
2022-09-12T22:56:37.572Z,17.8
2022-09-12T23:01:37.618Z,17.8
2022-09-12T23:06:37.581Z,17.8
2022-09-12T23:11:37.602Z,17.8
2022-09-12T23:16:37.663Z,17.9
2022-09-12T23:21:37.589Z,17.9
2022-09-12T23:26:37.594Z,17.8
2022-09-12T23:31:37.680Z,17.8
2022-09-12T23:36:37.600Z,17.8
2022-09-12T23:41:37.600Z,17.8
2022-09-12T23:46:37.602Z,17.9
2022-09-12T23:51:37.608Z,17.8
2022-09-12T23:56:37.621Z,17.8
